<?xml version="1.0" encoding="UTF-8" standalone="no" ?>
<gpx xmlns="http://www.topografix.com/GPX/1/1" xmlns:xsi="http://www.w3.org/2001/XMLSchema-instance" xsi:schemaLocation="http://www.topografix.com/GPX/1/1 http://www.topografix.com/GPX/1/1/gpx.xsd" version="1.1" creator="VisuGPX - https://www.visugpx.com">
  <metadata>
    <name>Le Grand Montrond</name>
  </metadata>
  <wpt lat="46.36724" lon="6.01593">
    <ele>1321</ele>
    <name><![CDATA[Station de ski]]></name>
  </wpt>
  <wpt lat="46.3671" lon="6.01446">
    <ele>1321</ele>
    <name><![CDATA[Gare de départ luge artificielle]]></name>
  </wpt>
  <wpt lat="46.36252" lon="6.00876">
    <ele>1394</ele>
    <name><![CDATA[Carrefour piste GR9]]></name>
  </wpt>
  <wpt lat="46.36059" lon="6.00776">
    <ele>1429</ele>
    <name><![CDATA[Carrefour piste GR9]]></name>
  </wpt>
  <wpt lat="46.35932" lon="6.01674">
    <ele>1511</ele>
    <name><![CDATA[Remontée mécanique]]></name>
  </wpt>
  <wpt lat="46.35864" lon="6.01832">
    <ele>1514</ele>
    <name><![CDATA[Petit Mont Rond - Vue sur le]]></name>
  </wpt>
  <wpt lat="46.35137" lon="6.00807">
    <ele>1487</ele>
    <name><![CDATA[Vue sur la ferme]]></name>
  </wpt>
  <wpt lat="46.35228" lon="6.00475">
    <ele>1473</ele>
    <name><![CDATA[Ferme d'alpage]]></name>
  </wpt>
  <wpt lat="46.35799" lon="6.00804">
    <ele>1462</ele>
    <name><![CDATA[Téléski des Gélinottes]]></name>
  </wpt>
  <trk>
    <name><![CDATA[Le Grand Montrond]]></name>
    <trkseg>
      <trkpt lat="46.36976" lon="6.01857">
        <ele>1320</ele>
        <time>2017-07-15T12:17:31+02:00</time>
      </trkpt>
      <trkpt lat="46.36953" lon="6.01805">
        <ele>1311</ele>
        <time>2021-08-10T09:57:19+02:00</time>
      </trkpt>
      <trkpt lat="46.36913" lon="6.0176">
        <ele>1314</ele>
        <time>2017-07-15T12:28:29+02:00</time>
      </trkpt>
      <trkpt lat="46.36882" lon="6.01727">
        <ele>1312</ele>
        <time>2017-07-15T12:48:36+02:00</time>
      </trkpt>
      <trkpt lat="46.36868" lon="6.01702">
        <ele>1311</ele>
        <time>2017-07-15T12:48:50+02:00</time>
      </trkpt>
      <trkpt lat="46.36849" lon="6.01678">
        <ele>1314</ele>
        <time>2017-07-15T12:49:06+02:00</time>
      </trkpt>
      <trkpt lat="46.3684" lon="6.01648">
        <ele>1314</ele>
        <time>2017-07-15T12:49:22+02:00</time>
      </trkpt>
      <trkpt lat="46.36817" lon="6.01636">
        <ele>1316</ele>
        <time>2017-07-15T12:49:42+02:00</time>
      </trkpt>
      <trkpt lat="46.36795" lon="6.01629">
        <ele>1317</ele>
        <time>2017-07-15T12:50:02+02:00</time>
      </trkpt>
      <trkpt lat="46.36774" lon="6.01642">
        <ele>1320</ele>
        <time>2017-07-15T12:50:38+02:00</time>
      </trkpt>
      <trkpt lat="46.3675" lon="6.01646">
        <ele>1322</ele>
        <time>2017-07-15T12:51:54+02:00</time>
      </trkpt>
      <trkpt lat="46.36733" lon="6.01624">
        <ele>1322</ele>
        <time>2017-07-15T12:52:10+02:00</time>
      </trkpt>
      <trkpt lat="46.36724" lon="6.01593">
        <ele>1321</ele>
        <time>2017-07-15T12:57:06+02:00</time>
      </trkpt>
      <trkpt lat="46.36735" lon="6.0156">
        <ele>1319</ele>
        <time>2017-07-15T12:57:28+02:00</time>
      </trkpt>
      <trkpt lat="46.3674" lon="6.01528">
        <ele>1317</ele>
        <time>2017-07-15T12:57:46+02:00</time>
      </trkpt>
      <trkpt lat="46.36726" lon="6.015">
        <ele>1317</ele>
        <time>2017-07-15T12:58:10+02:00</time>
      </trkpt>
      <trkpt lat="46.36718" lon="6.01468">
        <ele>1319</ele>
        <time>2017-07-15T12:58:26+02:00</time>
      </trkpt>
      <trkpt lat="46.3671" lon="6.01446">
        <ele>1321</ele>
        <time>2017-07-15T12:58:54+02:00</time>
      </trkpt>
      <trkpt lat="46.36649" lon="6.01463">
        <ele>1328</ele>
        <time>2017-07-15T12:59:42+02:00</time>
      </trkpt>
      <trkpt lat="46.36615" lon="6.01464">
        <ele>1333</ele>
        <time>2017-07-15T13:00:30+02:00</time>
      </trkpt>
      <trkpt lat="46.36584" lon="6.01454">
        <ele>1339</ele>
        <time>2017-07-15T13:00:50+02:00</time>
      </trkpt>
      <trkpt lat="46.36573" lon="6.01423">
        <ele>1342</ele>
        <time>2017-07-15T13:01:10+02:00</time>
      </trkpt>
      <trkpt lat="46.36563" lon="6.01396">
        <ele>1344</ele>
        <time>2017-07-15T13:01:32+02:00</time>
      </trkpt>
      <trkpt lat="46.36555" lon="6.01368">
        <ele>1346</ele>
        <time>2017-07-15T13:01:56+02:00</time>
      </trkpt>
      <trkpt lat="46.36547" lon="6.01335">
        <ele>1348</ele>
        <time>2017-07-15T13:02:18+02:00</time>
      </trkpt>
      <trkpt lat="46.36542" lon="6.01301">
        <ele>1346</ele>
        <time>2017-07-15T13:02:38+02:00</time>
      </trkpt>
      <trkpt lat="46.36539" lon="6.01272">
        <ele>1344</ele>
        <time>2017-07-15T13:02:56+02:00</time>
      </trkpt>
      <trkpt lat="46.36541" lon="6.01251">
        <ele>1343</ele>
        <time>2021-08-10T09:59:29+02:00</time>
      </trkpt>
      <trkpt lat="46.36541" lon="6.01226">
        <ele>1343</ele>
        <time>2017-07-15T13:03:14+02:00</time>
      </trkpt>
      <trkpt lat="46.36537" lon="6.01209">
        <ele>1344</ele>
        <time>2021-08-10T09:59:39+02:00</time>
      </trkpt>
      <trkpt lat="46.36521" lon="6.01208">
        <ele>1346</ele>
        <time>2017-07-15T13:03:44+02:00</time>
      </trkpt>
      <trkpt lat="46.36498" lon="6.01197">
        <ele>1349</ele>
        <time>2017-07-15T13:04:06+02:00</time>
      </trkpt>
      <trkpt lat="46.36491" lon="6.01171">
        <ele>1351</ele>
        <time>2021-08-10T09:59:54+02:00</time>
      </trkpt>
      <trkpt lat="46.36483" lon="6.01151">
        <ele>1351</ele>
        <time>2017-07-15T13:04:30+02:00</time>
      </trkpt>
      <trkpt lat="46.36464" lon="6.01157">
        <ele>1354</ele>
        <time>2017-07-15T13:05:06+02:00</time>
      </trkpt>
      <trkpt lat="46.36456" lon="6.01182">
        <ele>1356</ele>
        <time>2021-08-10T10:00:09+02:00</time>
      </trkpt>
      <trkpt lat="46.36443" lon="6.01188">
        <ele>1358</ele>
        <time>2017-07-15T13:05:30+02:00</time>
      </trkpt>
      <trkpt lat="46.36414" lon="6.01158">
        <ele>1362</ele>
        <time>2021-08-10T10:00:19+02:00</time>
      </trkpt>
      <trkpt lat="46.36399" lon="6.0115">
        <ele>1366</ele>
        <time>2017-07-15T13:06:48+02:00</time>
      </trkpt>
      <trkpt lat="46.36387" lon="6.01127">
        <ele>1369</ele>
        <time>2017-07-15T13:07:04+02:00</time>
      </trkpt>
      <trkpt lat="46.3636" lon="6.01095">
        <ele>1378</ele>
        <time>2017-07-15T13:07:30+02:00</time>
      </trkpt>
      <trkpt lat="46.3635" lon="6.01055">
        <ele>1379</ele>
        <time>2017-07-15T13:08:12+02:00</time>
      </trkpt>
      <trkpt lat="46.36336" lon="6.01017">
        <ele>1379</ele>
        <time>2017-07-15T13:08:36+02:00</time>
      </trkpt>
      <trkpt lat="46.36339" lon="6.0098">
        <ele>1374</ele>
        <time>2017-07-15T13:08:58+02:00</time>
      </trkpt>
      <trkpt lat="46.36315" lon="6.00962">
        <ele>1380</ele>
        <time>2017-07-15T13:09:30+02:00</time>
      </trkpt>
      <trkpt lat="46.36294" lon="6.00946">
        <ele>1386</ele>
        <time>2017-07-15T13:09:54+02:00</time>
      </trkpt>
      <trkpt lat="46.36275" lon="6.00899">
        <ele>1388</ele>
        <time>2017-07-15T13:10:42+02:00</time>
      </trkpt>
      <trkpt lat="46.36252" lon="6.00876">
        <ele>1394</ele>
        <time>2017-07-15T13:11:12+02:00</time>
      </trkpt>
      <trkpt lat="46.36225" lon="6.00842">
        <ele>1399</ele>
        <time>2017-07-15T13:11:36+02:00</time>
      </trkpt>
      <trkpt lat="46.36208" lon="6.00808">
        <ele>1400</ele>
        <time>2017-07-15T13:12:42+02:00</time>
      </trkpt>
      <trkpt lat="46.36196" lon="6.0078">
        <ele>1401</ele>
        <time>2017-07-15T13:13:02+02:00</time>
      </trkpt>
      <trkpt lat="46.3618" lon="6.00752">
        <ele>1404</ele>
        <time>2017-07-15T13:13:26+02:00</time>
      </trkpt>
      <trkpt lat="46.36159" lon="6.0073">
        <ele>1407</ele>
        <time>2017-07-15T13:13:52+02:00</time>
      </trkpt>
      <trkpt lat="46.36138" lon="6.00713">
        <ele>1410</ele>
        <time>2017-07-15T13:14:14+02:00</time>
      </trkpt>
      <trkpt lat="46.36118" lon="6.00707">
        <ele>1413</ele>
        <time>2017-07-15T13:14:38+02:00</time>
      </trkpt>
      <trkpt lat="46.36096" lon="6.00698">
        <ele>1417</ele>
        <time>2017-07-15T13:14:58+02:00</time>
      </trkpt>
      <trkpt lat="46.36078" lon="6.0068">
        <ele>1418</ele>
        <time>2017-07-15T13:15:18+02:00</time>
      </trkpt>
      <trkpt lat="46.36055" lon="6.00671">
        <ele>1421</ele>
        <time>2021-08-10T10:01:59+02:00</time>
      </trkpt>
      <trkpt lat="46.36054" lon="6.00698">
        <ele>1424</ele>
        <time>2017-07-15T13:16:00+02:00</time>
      </trkpt>
      <trkpt lat="46.36071" lon="6.00727">
        <ele>1424</ele>
        <time>2017-07-15T13:19:16+02:00</time>
      </trkpt>
      <trkpt lat="46.36076" lon="6.00759">
        <ele>1426</ele>
        <time>2017-07-15T13:19:36+02:00</time>
      </trkpt>
      <trkpt lat="46.36059" lon="6.00776">
        <ele>1429</ele>
        <time>2017-07-15T13:19:56+02:00</time>
      </trkpt>
      <trkpt lat="46.36033" lon="6.00764">
        <ele>1432</ele>
        <time>2017-07-15T13:20:36+02:00</time>
      </trkpt>
      <trkpt lat="46.36016" lon="6.00769">
        <ele>1434</ele>
        <time>2017-07-15T13:21:18+02:00</time>
      </trkpt>
      <trkpt lat="46.35976" lon="6.0082">
        <ele>1441</ele>
        <time>2017-07-15T13:21:44+02:00</time>
      </trkpt>
      <trkpt lat="46.35973" lon="6.00857">
        <ele>1443</ele>
        <time>2017-07-15T13:22:08+02:00</time>
      </trkpt>
      <trkpt lat="46.35975" lon="6.00885">
        <ele>1444</ele>
        <time>2017-07-15T13:22:32+02:00</time>
      </trkpt>
      <trkpt lat="46.35964" lon="6.00918">
        <ele>1447</ele>
        <time>2017-07-15T13:22:54+02:00</time>
      </trkpt>
      <trkpt lat="46.35961" lon="6.00958">
        <ele>1449</ele>
        <time>2021-08-10T10:02:54+02:00</time>
      </trkpt>
      <trkpt lat="46.35973" lon="6.00985">
        <ele>1448</ele>
        <time>2017-07-15T13:23:22+02:00</time>
      </trkpt>
      <trkpt lat="46.35986" lon="6.01003">
        <ele>1446</ele>
        <time>2017-07-15T13:23:42+02:00</time>
      </trkpt>
      <trkpt lat="46.36003" lon="6.01023">
        <ele>1445</ele>
        <time>2017-07-15T13:24:08+02:00</time>
      </trkpt>
      <trkpt lat="46.36018" lon="6.01046">
        <ele>1447</ele>
        <time>2017-07-15T13:24:34+02:00</time>
      </trkpt>
      <trkpt lat="46.36032" lon="6.01073">
        <ele>1449</ele>
        <time>2017-07-15T13:24:56+02:00</time>
      </trkpt>
      <trkpt lat="46.36049" lon="6.01099">
        <ele>1450</ele>
        <time>2017-07-15T13:25:20+02:00</time>
      </trkpt>
      <trkpt lat="46.36063" lon="6.01127">
        <ele>1451</ele>
        <time>2017-07-15T13:25:42+02:00</time>
      </trkpt>
      <trkpt lat="46.36057" lon="6.0116">
        <ele>1453</ele>
        <time>2017-07-15T13:26:02+02:00</time>
      </trkpt>
      <trkpt lat="46.36053" lon="6.01193">
        <ele>1454</ele>
        <time>2017-07-15T13:26:26+02:00</time>
      </trkpt>
      <trkpt lat="46.36055" lon="6.01228">
        <ele>1453</ele>
        <time>2017-07-15T13:26:46+02:00</time>
      </trkpt>
      <trkpt lat="46.36055" lon="6.01262">
        <ele>1455</ele>
        <time>2017-07-15T13:27:10+02:00</time>
      </trkpt>
      <trkpt lat="46.36056" lon="6.01294">
        <ele>1459</ele>
        <time>2017-07-15T13:27:38+02:00</time>
      </trkpt>
      <trkpt lat="46.3607" lon="6.0132">
        <ele>1459</ele>
        <time>2017-07-15T13:27:56+02:00</time>
      </trkpt>
      <trkpt lat="46.36079" lon="6.01351">
        <ele>1461</ele>
        <time>2017-07-15T13:28:16+02:00</time>
      </trkpt>
      <trkpt lat="46.36092" lon="6.01379">
        <ele>1461</ele>
        <time>2017-07-15T13:28:38+02:00</time>
      </trkpt>
      <trkpt lat="46.36092" lon="6.01413">
        <ele>1465</ele>
        <time>2017-07-15T13:29:00+02:00</time>
      </trkpt>
      <trkpt lat="46.36096" lon="6.01446">
        <ele>1467</ele>
        <time>2017-07-15T13:29:28+02:00</time>
      </trkpt>
      <trkpt lat="46.36115" lon="6.01466">
        <ele>1463</ele>
        <time>2017-07-15T13:29:52+02:00</time>
      </trkpt>
      <trkpt lat="46.36118" lon="6.015">
        <ele>1466</ele>
        <time>2017-07-15T13:42:34+02:00</time>
      </trkpt>
      <trkpt lat="46.36122" lon="6.01534">
        <ele>1467</ele>
        <time>2017-07-15T13:42:56+02:00</time>
      </trkpt>
      <trkpt lat="46.36119" lon="6.01567">
        <ele>1470</ele>
        <time>2017-07-15T13:44:00+02:00</time>
      </trkpt>
      <trkpt lat="46.36101" lon="6.0159">
        <ele>1475</ele>
        <time>2017-07-15T13:44:22+02:00</time>
      </trkpt>
      <trkpt lat="46.36078" lon="6.01602">
        <ele>1481</ele>
        <time>2017-07-15T13:44:40+02:00</time>
      </trkpt>
      <trkpt lat="46.36057" lon="6.01586">
        <ele>1486</ele>
        <time>2017-07-15T13:45:00+02:00</time>
      </trkpt>
      <trkpt lat="46.36052" lon="6.01554">
        <ele>1485</ele>
        <time>2017-07-15T13:45:24+02:00</time>
      </trkpt>
      <trkpt lat="46.3603" lon="6.01544">
        <ele>1489</ele>
        <time>2017-07-15T13:45:46+02:00</time>
      </trkpt>
      <trkpt lat="46.36007" lon="6.01542">
        <ele>1494</ele>
        <time>2017-07-15T13:46:10+02:00</time>
      </trkpt>
      <trkpt lat="46.35988" lon="6.01523">
        <ele>1495</ele>
        <time>2017-07-15T13:46:34+02:00</time>
      </trkpt>
      <trkpt lat="46.35973" lon="6.01497">
        <ele>1494</ele>
        <time>2017-07-15T13:46:58+02:00</time>
      </trkpt>
      <trkpt lat="46.3595" lon="6.01489">
        <ele>1496</ele>
        <time>2017-07-15T13:47:24+02:00</time>
      </trkpt>
      <trkpt lat="46.35949" lon="6.01523">
        <ele>1500</ele>
        <time>2017-07-15T13:47:54+02:00</time>
      </trkpt>
      <trkpt lat="46.35961" lon="6.01552">
        <ele>1502</ele>
        <time>2017-07-15T13:48:18+02:00</time>
      </trkpt>
      <trkpt lat="46.35957" lon="6.01584">
        <ele>1506</ele>
        <time>2017-07-15T13:48:40+02:00</time>
      </trkpt>
      <trkpt lat="46.35948" lon="6.01614">
        <ele>1507</ele>
        <time>2017-07-15T13:49:04+02:00</time>
      </trkpt>
      <trkpt lat="46.35934" lon="6.01641">
        <ele>1510</ele>
        <time>2017-07-15T13:49:24+02:00</time>
      </trkpt>
      <trkpt lat="46.35932" lon="6.01674">
        <ele>1511</ele>
        <time>2017-07-15T13:49:48+02:00</time>
      </trkpt>
      <trkpt lat="46.35929" lon="6.01707">
        <ele>1511</ele>
        <time>2017-07-15T13:50:10+02:00</time>
      </trkpt>
      <trkpt lat="46.35925" lon="6.01741">
        <ele>1512</ele>
        <time>2017-07-15T13:50:34+02:00</time>
      </trkpt>
      <trkpt lat="46.35917" lon="6.01773">
        <ele>1512</ele>
        <time>2017-07-15T13:51:00+02:00</time>
      </trkpt>
      <trkpt lat="46.35893" lon="6.01769">
        <ele>1516</ele>
        <time>2017-07-15T13:51:26+02:00</time>
      </trkpt>
      <trkpt lat="46.35871" lon="6.01777">
        <ele>1519</ele>
        <time>2017-07-15T13:51:54+02:00</time>
      </trkpt>
      <trkpt lat="46.35856" lon="6.01801">
        <ele>1518</ele>
        <time>2017-07-15T13:52:28+02:00</time>
      </trkpt>
      <trkpt lat="46.35864" lon="6.01832">
        <ele>1514</ele>
        <time>2017-07-15T13:53:58+02:00</time>
      </trkpt>
      <trkpt lat="46.3585" lon="6.01803">
        <ele>1519</ele>
        <time>2017-07-15T14:00:40+02:00</time>
      </trkpt>
      <trkpt lat="46.35836" lon="6.01776">
        <ele>1524</ele>
        <time>2017-07-15T14:01:26+02:00</time>
      </trkpt>
      <trkpt lat="46.35822" lon="6.01749">
        <ele>1528</ele>
        <time>2017-07-15T14:01:46+02:00</time>
      </trkpt>
      <trkpt lat="46.35815" lon="6.01716">
        <ele>1528</ele>
        <time>2017-07-15T14:02:06+02:00</time>
      </trkpt>
      <trkpt lat="46.35805" lon="6.01686">
        <ele>1529</ele>
        <time>2017-07-15T14:02:30+02:00</time>
      </trkpt>
      <trkpt lat="46.35788" lon="6.01661">
        <ele>1530</ele>
        <time>2017-07-15T14:02:52+02:00</time>
      </trkpt>
      <trkpt lat="46.35765" lon="6.01647">
        <ele>1531</ele>
        <time>2017-07-15T14:03:14+02:00</time>
      </trkpt>
      <trkpt lat="46.35742" lon="6.01644">
        <ele>1531</ele>
        <time>2017-07-15T14:03:38+02:00</time>
      </trkpt>
      <trkpt lat="46.35726" lon="6.01621">
        <ele>1527</ele>
        <time>2017-07-15T14:05:04+02:00</time>
      </trkpt>
      <trkpt lat="46.35704" lon="6.01605">
        <ele>1523</ele>
        <time>2017-07-15T14:05:38+02:00</time>
      </trkpt>
      <trkpt lat="46.35691" lon="6.01576">
        <ele>1520</ele>
        <time>2017-07-15T14:06:02+02:00</time>
      </trkpt>
      <trkpt lat="46.35672" lon="6.01556">
        <ele>1519</ele>
        <time>2017-07-15T14:06:34+02:00</time>
      </trkpt>
      <trkpt lat="46.35649" lon="6.01554">
        <ele>1518</ele>
        <time>2017-07-15T14:07:02+02:00</time>
      </trkpt>
      <trkpt lat="46.35626" lon="6.01546">
        <ele>1517</ele>
        <time>2017-07-15T14:07:40+02:00</time>
      </trkpt>
      <trkpt lat="46.35603" lon="6.01552">
        <ele>1515</ele>
        <time>2017-07-15T14:08:14+02:00</time>
      </trkpt>
      <trkpt lat="46.3558" lon="6.01552">
        <ele>1513</ele>
        <time>2017-07-15T14:09:44+02:00</time>
      </trkpt>
      <trkpt lat="46.35565" lon="6.01528">
        <ele>1514</ele>
        <time>2017-07-15T14:10:30+02:00</time>
      </trkpt>
      <trkpt lat="46.35554" lon="6.01498">
        <ele>1520</ele>
        <time>2017-07-15T14:11:52+02:00</time>
      </trkpt>
      <trkpt lat="46.35534" lon="6.0148">
        <ele>1518</ele>
        <time>2017-07-15T14:12:42+02:00</time>
      </trkpt>
      <trkpt lat="46.35523" lon="6.01449">
        <ele>1519</ele>
        <time>2017-07-15T14:13:28+02:00</time>
      </trkpt>
      <trkpt lat="46.35514" lon="6.01417">
        <ele>1522</ele>
        <time>2017-07-15T14:13:52+02:00</time>
      </trkpt>
      <trkpt lat="46.35508" lon="6.01383">
        <ele>1520</ele>
        <time>2017-07-15T14:14:14+02:00</time>
      </trkpt>
      <trkpt lat="46.35505" lon="6.01349">
        <ele>1519</ele>
        <time>2017-07-15T14:14:38+02:00</time>
      </trkpt>
      <trkpt lat="46.35492" lon="6.01323">
        <ele>1515</ele>
        <time>2017-07-15T14:15:16+02:00</time>
      </trkpt>
      <trkpt lat="46.35477" lon="6.01298">
        <ele>1509</ele>
        <time>2017-07-15T14:15:58+02:00</time>
      </trkpt>
      <trkpt lat="46.35495" lon="6.01275">
        <ele>1510</ele>
        <time>2017-07-15T14:16:42+02:00</time>
      </trkpt>
      <trkpt lat="46.35498" lon="6.01242">
        <ele>1508</ele>
        <time>2017-07-15T14:17:52+02:00</time>
      </trkpt>
      <trkpt lat="46.35512" lon="6.01213">
        <ele>1509</ele>
        <time>2017-07-15T14:18:40+02:00</time>
      </trkpt>
      <trkpt lat="46.35513" lon="6.0118">
        <ele>1508</ele>
        <time>2017-07-15T14:19:22+02:00</time>
      </trkpt>
      <trkpt lat="46.35493" lon="6.01163">
        <ele>1508</ele>
        <time>2017-07-15T14:19:58+02:00</time>
      </trkpt>
      <trkpt lat="46.35472" lon="6.01148">
        <ele>1507</ele>
        <time>2017-07-15T14:20:54+02:00</time>
      </trkpt>
      <trkpt lat="46.3545" lon="6.01134">
        <ele>1508</ele>
        <time>2017-07-15T14:21:32+02:00</time>
      </trkpt>
      <trkpt lat="46.35426" lon="6.01136">
        <ele>1507</ele>
        <time>2017-07-15T14:21:58+02:00</time>
      </trkpt>
      <trkpt lat="46.35405" lon="6.01124">
        <ele>1508</ele>
        <time>2017-07-15T14:22:28+02:00</time>
      </trkpt>
      <trkpt lat="46.35384" lon="6.01109">
        <ele>1511</ele>
        <time>2017-07-15T14:22:56+02:00</time>
      </trkpt>
      <trkpt lat="46.35362" lon="6.01099">
        <ele>1513</ele>
        <time>2017-07-15T14:23:24+02:00</time>
      </trkpt>
      <trkpt lat="46.35339" lon="6.01094">
        <ele>1516</ele>
        <time>2017-07-15T14:24:02+02:00</time>
      </trkpt>
      <trkpt lat="46.35315" lon="6.01087">
        <ele>1518</ele>
        <time>2017-07-15T14:24:32+02:00</time>
      </trkpt>
      <trkpt lat="46.35295" lon="6.01074">
        <ele>1519</ele>
        <time>2017-07-15T14:26:58+02:00</time>
      </trkpt>
      <trkpt lat="46.35271" lon="6.01069">
        <ele>1519</ele>
        <time>2017-07-15T14:27:26+02:00</time>
      </trkpt>
      <trkpt lat="46.35252" lon="6.0105">
        <ele>1523</ele>
        <time>2017-07-15T14:28:04+02:00</time>
      </trkpt>
      <trkpt lat="46.35239" lon="6.01022">
        <ele>1526</ele>
        <time>2017-07-15T14:28:46+02:00</time>
      </trkpt>
      <trkpt lat="46.35227" lon="6.00994">
        <ele>1529</ele>
        <time>2017-07-15T14:29:28+02:00</time>
      </trkpt>
      <trkpt lat="46.35203" lon="6.00997">
        <ele>1525</ele>
        <time>2017-07-15T14:29:54+02:00</time>
      </trkpt>
      <trkpt lat="46.35181" lon="6.0099">
        <ele>1521</ele>
        <time>2017-07-15T14:30:20+02:00</time>
      </trkpt>
      <trkpt lat="46.35159" lon="6.00994">
        <ele>1517</ele>
        <time>2017-07-15T14:30:44+02:00</time>
      </trkpt>
      <trkpt lat="46.35137" lon="6.01006">
        <ele>1507</ele>
        <time>2017-07-15T14:31:18+02:00</time>
      </trkpt>
      <trkpt lat="46.35114" lon="6.01001">
        <ele>1500</ele>
        <time>2017-07-15T14:31:44+02:00</time>
      </trkpt>
      <trkpt lat="46.35092" lon="6.0099">
        <ele>1492</ele>
        <time>2017-07-15T14:32:30+02:00</time>
      </trkpt>
      <trkpt lat="46.35095" lon="6.00958">
        <ele>1494</ele>
        <time>2017-07-15T14:32:50+02:00</time>
      </trkpt>
      <trkpt lat="46.35101" lon="6.00924">
        <ele>1496</ele>
        <time>2017-07-15T14:33:14+02:00</time>
      </trkpt>
      <trkpt lat="46.35103" lon="6.00891">
        <ele>1492</ele>
        <time>2017-07-15T14:34:04+02:00</time>
      </trkpt>
      <trkpt lat="46.35112" lon="6.00861">
        <ele>1489</ele>
        <time>2017-07-15T14:34:26+02:00</time>
      </trkpt>
      <trkpt lat="46.35126" lon="6.00836">
        <ele>1488</ele>
        <time>2017-07-15T14:35:40+02:00</time>
      </trkpt>
      <trkpt lat="46.35137" lon="6.00807">
        <ele>1487</ele>
        <time>2017-07-15T14:35:58+02:00</time>
      </trkpt>
      <trkpt lat="46.35119" lon="6.00785">
        <ele>1480</ele>
        <time>2017-07-15T14:36:40+02:00</time>
      </trkpt>
      <trkpt lat="46.35104" lon="6.0076">
        <ele>1475</ele>
        <time>2017-07-15T14:37:06+02:00</time>
      </trkpt>
      <trkpt lat="46.35086" lon="6.0074">
        <ele>1472</ele>
        <time>2017-07-15T14:37:28+02:00</time>
      </trkpt>
      <trkpt lat="46.3507" lon="6.00713">
        <ele>1476</ele>
        <time>2017-07-15T14:37:52+02:00</time>
      </trkpt>
      <trkpt lat="46.35059" lon="6.00682">
        <ele>1482</ele>
        <time>2017-07-15T14:38:24+02:00</time>
      </trkpt>
      <trkpt lat="46.35046" lon="6.00655">
        <ele>1488</ele>
        <time>2017-07-15T14:39:12+02:00</time>
      </trkpt>
      <trkpt lat="46.35039" lon="6.00624">
        <ele>1494</ele>
        <time>2017-07-15T14:39:44+02:00</time>
      </trkpt>
      <trkpt lat="46.35031" lon="6.0059">
        <ele>1502</ele>
        <time>2017-07-15T14:41:10+02:00</time>
      </trkpt>
      <trkpt lat="46.35023" lon="6.00559">
        <ele>1507</ele>
        <time>2017-07-15T14:41:46+02:00</time>
      </trkpt>
      <trkpt lat="46.35013" lon="6.0053">
        <ele>1510</ele>
        <time>2017-07-15T14:43:00+02:00</time>
      </trkpt>
      <trkpt lat="46.34992" lon="6.00543">
        <ele>1517</ele>
        <time>2017-07-15T14:44:26+02:00</time>
      </trkpt>
      <trkpt lat="46.34967" lon="6.00549">
        <ele>1526</ele>
        <time>2017-07-15T14:46:36+02:00</time>
      </trkpt>
      <trkpt lat="46.34949" lon="6.00568">
        <ele>1534</ele>
        <time>2017-07-15T14:47:14+02:00</time>
      </trkpt>
      <trkpt lat="46.34934" lon="6.00593">
        <ele>1540</ele>
        <time>2017-07-15T14:50:44+02:00</time>
      </trkpt>
      <trkpt lat="46.34913" lon="6.00579">
        <ele>1548</ele>
        <time>2017-07-15T14:51:22+02:00</time>
      </trkpt>
      <trkpt lat="46.34892" lon="6.00593">
        <ele>1555</ele>
        <time>2017-07-15T14:52:08+02:00</time>
      </trkpt>
      <trkpt lat="46.3488" lon="6.00612">
        <ele>1559</ele>
        <time>2021-08-10T10:12:29+02:00</time>
      </trkpt>
      <trkpt lat="46.34854" lon="6.00633">
        <ele>1565</ele>
        <time>2021-08-10T10:12:34+02:00</time>
      </trkpt>
      <trkpt lat="46.34814" lon="6.00619">
        <ele>1571</ele>
        <time>2021-08-10T10:12:39+02:00</time>
      </trkpt>
      <trkpt lat="46.348" lon="6.00627">
        <ele>1568</ele>
        <time>2017-07-15T15:02:42+02:00</time>
      </trkpt>
      <trkpt lat="46.34814" lon="6.0062">
        <ele>1571</ele>
        <time>2021-08-10T10:12:49+02:00</time>
      </trkpt>
      <trkpt lat="46.34826" lon="6.00601">
        <ele>1574</ele>
        <time>2021-08-10T10:12:54+02:00</time>
      </trkpt>
      <trkpt lat="46.34834" lon="6.0056">
        <ele>1571</ele>
        <time>2021-08-10T10:12:59+02:00</time>
      </trkpt>
      <trkpt lat="46.34852" lon="6.00541">
        <ele>1563</ele>
        <time>2017-07-15T15:24:54+02:00</time>
      </trkpt>
      <trkpt lat="46.34858" lon="6.00508">
        <ele>1557</ele>
        <time>2017-07-15T15:25:20+02:00</time>
      </trkpt>
      <trkpt lat="46.3486" lon="6.00476">
        <ele>1553</ele>
        <time>2017-07-15T15:25:51+02:00</time>
      </trkpt>
      <trkpt lat="46.34857" lon="6.00443">
        <ele>1549</ele>
        <time>2017-07-15T15:26:52+02:00</time>
      </trkpt>
      <trkpt lat="46.34873" lon="6.0042">
        <ele>1543</ele>
        <time>2017-07-15T15:27:18+02:00</time>
      </trkpt>
      <trkpt lat="46.34887" lon="6.00394">
        <ele>1538</ele>
        <time>2017-07-15T15:27:34+02:00</time>
      </trkpt>
      <trkpt lat="46.3491" lon="6.00387">
        <ele>1535</ele>
        <time>2017-07-15T15:27:54+02:00</time>
      </trkpt>
      <trkpt lat="46.34932" lon="6.00395">
        <ele>1530</ele>
        <time>2017-07-15T15:28:31+02:00</time>
      </trkpt>
      <trkpt lat="46.34952" lon="6.0041">
        <ele>1524</ele>
        <time>2017-07-15T15:29:19+02:00</time>
      </trkpt>
      <trkpt lat="46.34974" lon="6.00417">
        <ele>1517</ele>
        <time>2017-07-15T15:29:56+02:00</time>
      </trkpt>
      <trkpt lat="46.34997" lon="6.00425">
        <ele>1510</ele>
        <time>2017-07-15T15:30:24+02:00</time>
      </trkpt>
      <trkpt lat="46.35013" lon="6.00448">
        <ele>1507</ele>
        <time>2017-07-15T15:31:02+02:00</time>
      </trkpt>
      <trkpt lat="46.35035" lon="6.0046">
        <ele>1503</ele>
        <time>2017-07-15T15:31:37+02:00</time>
      </trkpt>
      <trkpt lat="46.35057" lon="6.00468">
        <ele>1497</ele>
        <time>2017-07-15T15:32:11+02:00</time>
      </trkpt>
      <trkpt lat="46.3508" lon="6.00474">
        <ele>1492</ele>
        <time>2017-07-15T15:32:41+02:00</time>
      </trkpt>
      <trkpt lat="46.351" lon="6.00487">
        <ele>1488</ele>
        <time>2017-07-15T15:33:04+02:00</time>
      </trkpt>
      <trkpt lat="46.35121" lon="6.005">
        <ele>1485</ele>
        <time>2017-07-15T15:33:32+02:00</time>
      </trkpt>
      <trkpt lat="46.35144" lon="6.00502">
        <ele>1482</ele>
        <time>2017-07-15T15:33:55+02:00</time>
      </trkpt>
      <trkpt lat="46.35165" lon="6.00492">
        <ele>1479</ele>
        <time>2017-07-15T15:34:23+02:00</time>
      </trkpt>
      <trkpt lat="46.35187" lon="6.00502">
        <ele>1477</ele>
        <time>2017-07-15T15:34:55+02:00</time>
      </trkpt>
      <trkpt lat="46.3521" lon="6.00498">
        <ele>1475</ele>
        <time>2017-07-15T15:35:20+02:00</time>
      </trkpt>
      <trkpt lat="46.35228" lon="6.00475">
        <ele>1473</ele>
        <time>2017-07-15T15:36:03+02:00</time>
      </trkpt>
      <trkpt lat="46.35249" lon="6.00462">
        <ele>1470</ele>
        <time>2017-07-15T15:36:21+02:00</time>
      </trkpt>
      <trkpt lat="46.35272" lon="6.00463">
        <ele>1468</ele>
        <time>2017-07-15T15:36:42+02:00</time>
      </trkpt>
      <trkpt lat="46.35294" lon="6.00449">
        <ele>1466</ele>
        <time>2017-07-15T15:37:02+02:00</time>
      </trkpt>
      <trkpt lat="46.35316" lon="6.00445">
        <ele>1463</ele>
        <time>2017-07-15T15:37:21+02:00</time>
      </trkpt>
      <trkpt lat="46.35324" lon="6.00477">
        <ele>1465</ele>
        <time>2017-07-15T15:37:41+02:00</time>
      </trkpt>
      <trkpt lat="46.35341" lon="6.00501">
        <ele>1467</ele>
        <time>2017-07-15T15:37:59+02:00</time>
      </trkpt>
      <trkpt lat="46.35364" lon="6.00492">
        <ele>1466</ele>
        <time>2017-07-15T15:38:19+02:00</time>
      </trkpt>
      <trkpt lat="46.35387" lon="6.00482">
        <ele>1466</ele>
        <time>2017-07-15T15:38:37+02:00</time>
      </trkpt>
      <trkpt lat="46.3541" lon="6.00473">
        <ele>1465</ele>
        <time>2017-07-15T15:38:55+02:00</time>
      </trkpt>
      <trkpt lat="46.35429" lon="6.00492">
        <ele>1467</ele>
        <time>2017-07-15T15:39:11+02:00</time>
      </trkpt>
      <trkpt lat="46.35451" lon="6.00496">
        <ele>1466</ele>
        <time>2017-07-15T15:39:28+02:00</time>
      </trkpt>
      <trkpt lat="46.35474" lon="6.00501">
        <ele>1465</ele>
        <time>2017-07-15T15:39:47+02:00</time>
      </trkpt>
      <trkpt lat="46.35497" lon="6.00506">
        <ele>1465</ele>
        <time>2017-07-15T15:40:03+02:00</time>
      </trkpt>
      <trkpt lat="46.35515" lon="6.00527">
        <ele>1465</ele>
        <time>2017-07-15T15:40:25+02:00</time>
      </trkpt>
      <trkpt lat="46.3551" lon="6.00559">
        <ele>1468</ele>
        <time>2017-07-15T15:40:42+02:00</time>
      </trkpt>
      <trkpt lat="46.35528" lon="6.0058">
        <ele>1470</ele>
        <time>2017-07-15T15:41:06+02:00</time>
      </trkpt>
      <trkpt lat="46.35551" lon="6.00574">
        <ele>1469</ele>
        <time>2017-07-15T15:41:24+02:00</time>
      </trkpt>
      <trkpt lat="46.35569" lon="6.00553">
        <ele>1466</ele>
        <time>2017-07-15T15:41:42+02:00</time>
      </trkpt>
      <trkpt lat="46.35588" lon="6.00534">
        <ele>1462</ele>
        <time>2017-07-15T15:41:59+02:00</time>
      </trkpt>
      <trkpt lat="46.35611" lon="6.0054">
        <ele>1461</ele>
        <time>2017-07-15T15:42:17+02:00</time>
      </trkpt>
      <trkpt lat="46.35631" lon="6.00556">
        <ele>1460</ele>
        <time>2017-07-15T15:42:35+02:00</time>
      </trkpt>
      <trkpt lat="46.3565" lon="6.00578">
        <ele>1461</ele>
        <time>2017-07-15T15:42:51+02:00</time>
      </trkpt>
      <trkpt lat="46.35667" lon="6.006">
        <ele>1461</ele>
        <time>2017-07-15T15:43:10+02:00</time>
      </trkpt>
      <trkpt lat="46.35679" lon="6.00629">
        <ele>1463</ele>
        <time>2017-07-15T15:43:26+02:00</time>
      </trkpt>
      <trkpt lat="46.35684" lon="6.00661">
        <ele>1466</ele>
        <time>2017-07-15T15:43:44+02:00</time>
      </trkpt>
      <trkpt lat="46.35692" lon="6.00692">
        <ele>1466</ele>
        <time>2017-07-15T15:44:02+02:00</time>
      </trkpt>
      <trkpt lat="46.35701" lon="6.00723">
        <ele>1466</ele>
        <time>2017-07-15T15:44:19+02:00</time>
      </trkpt>
      <trkpt lat="46.35716" lon="6.00747">
        <ele>1464</ele>
        <time>2017-07-15T15:44:34+02:00</time>
      </trkpt>
      <trkpt lat="46.35738" lon="6.00762">
        <ele>1462</ele>
        <time>2017-07-15T15:44:52+02:00</time>
      </trkpt>
      <trkpt lat="46.35759" lon="6.00776">
        <ele>1461</ele>
        <time>2017-07-15T15:45:11+02:00</time>
      </trkpt>
      <trkpt lat="46.35776" lon="6.00797">
        <ele>1463</ele>
        <time>2017-07-15T15:45:30+02:00</time>
      </trkpt>
      <trkpt lat="46.35799" lon="6.00804">
        <ele>1462</ele>
        <time>2017-07-15T15:45:56+02:00</time>
      </trkpt>
      <trkpt lat="46.35813" lon="6.00776">
        <ele>1458</ele>
        <time>2017-07-15T15:46:46+02:00</time>
      </trkpt>
      <trkpt lat="46.35831" lon="6.00738">
        <ele>1453</ele>
        <time>2017-07-15T15:47:13+02:00</time>
      </trkpt>
      <trkpt lat="46.35861" lon="6.00746">
        <ele>1451</ele>
        <time>2017-07-15T15:48:27+02:00</time>
      </trkpt>
      <trkpt lat="46.3589" lon="6.00746">
        <ele>1447</ele>
        <time>2017-07-15T15:48:57+02:00</time>
      </trkpt>
      <trkpt lat="46.35919" lon="6.00742">
        <ele>1444</ele>
        <time>2017-07-15T15:49:17+02:00</time>
      </trkpt>
      <trkpt lat="46.35943" lon="6.00749">
        <ele>1442</ele>
        <time>2017-07-15T15:49:54+02:00</time>
      </trkpt>
      <trkpt lat="46.35964" lon="6.00736">
        <ele>1439</ele>
        <time>2017-07-15T15:50:11+02:00</time>
      </trkpt>
      <trkpt lat="46.35986" lon="6.00743">
        <ele>1437</ele>
        <time>2017-07-15T15:50:37+02:00</time>
      </trkpt>
      <trkpt lat="46.36007" lon="6.00755">
        <ele>1435</ele>
        <time>2017-07-15T15:51:01+02:00</time>
      </trkpt>
      <trkpt lat="46.36031" lon="6.00763">
        <ele>1432</ele>
        <time>2017-07-15T15:51:25+02:00</time>
      </trkpt>
      <trkpt lat="46.3606" lon="6.00774">
        <ele>1429</ele>
        <time>2017-07-15T15:51:39+02:00</time>
      </trkpt>
      <trkpt lat="46.3609" lon="6.00787">
        <ele>1425</ele>
        <time>2017-07-15T15:52:10+02:00</time>
      </trkpt>
      <trkpt lat="46.36123" lon="6.00797">
        <ele>1420</ele>
        <time>2017-07-15T15:58:18+02:00</time>
      </trkpt>
      <trkpt lat="46.36147" lon="6.00823">
        <ele>1417</ele>
        <time>2017-07-15T15:58:49+02:00</time>
      </trkpt>
      <trkpt lat="46.36168" lon="6.00853">
        <ele>1415</ele>
        <time>2017-07-15T15:59:19+02:00</time>
      </trkpt>
      <trkpt lat="46.36191" lon="6.0089">
        <ele>1412</ele>
        <time>2017-07-15T15:59:51+02:00</time>
      </trkpt>
      <trkpt lat="46.36224" lon="6.00881">
        <ele>1403</ele>
        <time>2017-07-15T16:00:50+02:00</time>
      </trkpt>
      <trkpt lat="46.36252" lon="6.00877">
        <ele>1394</ele>
        <time>2017-07-15T16:01:09+02:00</time>
      </trkpt>
      <trkpt lat="46.36275" lon="6.00899">
        <ele>1388</ele>
        <time>2017-07-15T16:01:24+02:00</time>
      </trkpt>
      <trkpt lat="46.36294" lon="6.00945">
        <ele>1386</ele>
        <time>2017-07-15T16:01:42+02:00</time>
      </trkpt>
      <trkpt lat="46.36317" lon="6.00961">
        <ele>1380</ele>
        <time>2017-07-15T16:02:18+02:00</time>
      </trkpt>
      <trkpt lat="46.36338" lon="6.00979">
        <ele>1374</ele>
        <time>2017-07-15T16:02:34+02:00</time>
      </trkpt>
      <trkpt lat="46.36337" lon="6.01019">
        <ele>1379</ele>
        <time>2017-07-15T16:02:49+02:00</time>
      </trkpt>
      <trkpt lat="46.36349" lon="6.01054">
        <ele>1379</ele>
        <time>2017-07-15T16:03:05+02:00</time>
      </trkpt>
      <trkpt lat="46.36361" lon="6.01094">
        <ele>1378</ele>
        <time>2017-07-15T16:03:45+02:00</time>
      </trkpt>
      <trkpt lat="46.36387" lon="6.01126">
        <ele>1369</ele>
        <time>2017-07-15T16:04:06+02:00</time>
      </trkpt>
      <trkpt lat="46.36398" lon="6.01149">
        <ele>1366</ele>
        <time>2017-07-15T16:04:23+02:00</time>
      </trkpt>
      <trkpt lat="46.36415" lon="6.0116">
        <ele>1361</ele>
        <time>2021-08-10T10:19:49+02:00</time>
      </trkpt>
      <trkpt lat="46.36442" lon="6.01189">
        <ele>1358</ele>
        <time>2017-07-15T16:05:01+02:00</time>
      </trkpt>
      <trkpt lat="46.36457" lon="6.01182">
        <ele>1356</ele>
        <time>2017-07-15T16:05:21+02:00</time>
      </trkpt>
      <trkpt lat="46.36465" lon="6.01158">
        <ele>1354</ele>
        <time>2017-07-15T16:05:41+02:00</time>
      </trkpt>
      <trkpt lat="46.36482" lon="6.01151">
        <ele>1352</ele>
        <time>2017-07-15T16:06:06+02:00</time>
      </trkpt>
      <trkpt lat="46.36491" lon="6.01171">
        <ele>1351</ele>
        <time>2021-08-10T10:20:14+02:00</time>
      </trkpt>
      <trkpt lat="46.36498" lon="6.01198">
        <ele>1349</ele>
        <time>2021-08-10T10:20:19+02:00</time>
      </trkpt>
      <trkpt lat="46.3652" lon="6.01207">
        <ele>1346</ele>
        <time>2021-08-10T10:20:24+02:00</time>
      </trkpt>
      <trkpt lat="46.36537" lon="6.01209">
        <ele>1344</ele>
        <time>2021-08-10T10:20:29+02:00</time>
      </trkpt>
      <trkpt lat="46.3654" lon="6.01225">
        <ele>1343</ele>
        <time>2021-08-10T10:20:34+02:00</time>
      </trkpt>
      <trkpt lat="46.36541" lon="6.0125">
        <ele>1343</ele>
        <time>2021-08-10T10:20:39+02:00</time>
      </trkpt>
      <trkpt lat="46.36538" lon="6.01272">
        <ele>1344</ele>
        <time>2017-07-15T16:06:25+02:00</time>
      </trkpt>
      <trkpt lat="46.36543" lon="6.01301">
        <ele>1346</ele>
        <time>2017-07-15T16:07:04+02:00</time>
      </trkpt>
      <trkpt lat="46.36549" lon="6.01333">
        <ele>1348</ele>
        <time>2017-07-15T16:07:22+02:00</time>
      </trkpt>
      <trkpt lat="46.36557" lon="6.01366">
        <ele>1346</ele>
        <time>2017-07-15T16:07:41+02:00</time>
      </trkpt>
      <trkpt lat="46.36564" lon="6.01397">
        <ele>1344</ele>
        <time>2017-07-15T16:08:03+02:00</time>
      </trkpt>
      <trkpt lat="46.36574" lon="6.01427">
        <ele>1342</ele>
        <time>2017-07-15T16:08:22+02:00</time>
      </trkpt>
      <trkpt lat="46.36587" lon="6.01455">
        <ele>1338</ele>
        <time>2017-07-15T16:08:43+02:00</time>
      </trkpt>
      <trkpt lat="46.36614" lon="6.01461">
        <ele>1334</ele>
        <time>2017-07-15T16:09:05+02:00</time>
      </trkpt>
      <trkpt lat="46.36649" lon="6.01462">
        <ele>1328</ele>
        <time>2017-07-15T16:09:30+02:00</time>
      </trkpt>
      <trkpt lat="46.36711" lon="6.01446">
        <ele>1320</ele>
        <time>2017-07-15T16:10:43+02:00</time>
      </trkpt>
      <trkpt lat="46.36718" lon="6.01469">
        <ele>1319</ele>
        <time>2017-07-15T16:11:11+02:00</time>
      </trkpt>
      <trkpt lat="46.36728" lon="6.01501">
        <ele>1317</ele>
        <time>2017-07-15T16:11:51+02:00</time>
      </trkpt>
      <trkpt lat="46.3674" lon="6.01528">
        <ele>1317</ele>
        <time>2017-07-15T16:13:45+02:00</time>
      </trkpt>
      <trkpt lat="46.36736" lon="6.0156">
        <ele>1319</ele>
        <time>2021-08-10T10:21:49+02:00</time>
      </trkpt>
      <trkpt lat="46.36725" lon="6.01592">
        <ele>1321</ele>
        <time>2021-08-10T10:21:54+02:00</time>
      </trkpt>
      <trkpt lat="46.36734" lon="6.01625">
        <ele>1322</ele>
        <time>2017-07-15T16:20:21+02:00</time>
      </trkpt>
      <trkpt lat="46.36751" lon="6.01646">
        <ele>1322</ele>
        <time>2021-08-10T10:22:04+02:00</time>
      </trkpt>
      <trkpt lat="46.36774" lon="6.01642">
        <ele>1320</ele>
        <time>2021-08-10T10:22:09+02:00</time>
      </trkpt>
      <trkpt lat="46.36794" lon="6.01629">
        <ele>1317</ele>
        <time>2021-08-10T10:22:14+02:00</time>
      </trkpt>
      <trkpt lat="46.36819" lon="6.01636">
        <ele>1316</ele>
        <time>2021-08-10T10:22:19+02:00</time>
      </trkpt>
      <trkpt lat="46.36842" lon="6.01648">
        <ele>1313</ele>
        <time>2021-08-10T10:22:24+02:00</time>
      </trkpt>
      <trkpt lat="46.3685" lon="6.01677">
        <ele>1314</ele>
        <time>2021-08-10T10:22:29+02:00</time>
      </trkpt>
      <trkpt lat="46.36866" lon="6.01702">
        <ele>1312</ele>
        <time>2021-08-10T10:22:34+02:00</time>
      </trkpt>
      <trkpt lat="46.36883" lon="6.01729">
        <ele>1312</ele>
        <time>2021-08-10T10:22:39+02:00</time>
      </trkpt>
      <trkpt lat="46.36913" lon="6.0176">
        <ele>1314</ele>
        <time>2021-08-10T10:22:44+02:00</time>
      </trkpt>
      <trkpt lat="46.36953" lon="6.01806">
        <ele>1312</ele>
        <time>2021-08-10T10:22:49+02:00</time>
      </trkpt>
      <trkpt lat="46.36976" lon="6.01858">
        <ele>1320</ele>
        <time>2017-07-15T16:21:09+02:00</time>
      </trkpt>
    </trkseg>
  </trk>
</gpx>